createdAt,value
2022-12-18T00:02:16.576Z,65.59
2022-12-18T00:07:19.482Z,55.23
2022-12-18T00:12:22.494Z,55.34
2022-12-18T00:17:25.601Z,64.58
2022-12-18T00:22:28.809Z,61.39
2022-12-18T00:27:31.810Z,52.72
2022-12-18T00:32:34.925Z,56.86
2022-12-18T00:37:37.926Z,60.79
2022-12-18T00:42:58.962Z,69.23
2022-12-18T00:48:02.169Z,56.48
2022-12-18T00:53:05.686Z,53.61
2022-12-18T00:58:09.706Z,55.91
2022-12-18T01:03:15.274Z,59.16
2022-12-18T01:08:18.700Z,69.13
2022-12-18T01:13:21.600Z,56.44
2022-12-18T01:18:24.711Z,57.07
2022-12-18T01:23:27.817Z,61.73
2022-12-18T01:28:30.721Z,66.88
2022-12-18T01:33:33.731Z,55.47
2022-12-18T01:38:36.841Z,55.11
2022-12-18T01:43:48.958Z,60.38
2022-12-18T01:48:56.342Z,66.13
2022-12-18T01:54:00.874Z,55.20
2022-12-18T01:59:07.913Z,54.84
2022-12-18T02:04:21.463Z,62.56
2022-12-18T02:09:36.652Z,68.09
2022-12-18T02:14:46.418Z,53.54
2022-12-18T02:20:29.158Z,52.87
2022-12-18T02:26:00.221Z,57.07
2022-12-18T02:31:07.537Z,61.12
2022-12-18T02:36:14.001Z,69.89
2022-12-18T02:41:19.051Z,57.97
2022-12-18T02:46:28.118Z,54.41
2022-12-18T02:51:40.443Z,58.14
2022-12-18T02:56:52.981Z,67.18
2022-12-18T03:01:59.304Z,56.18
2022-12-18T03:07:07.076Z,52.28
2022-12-18T03:12:26.064Z,59.35
2022-12-18T03:17:33.344Z,66.37
2022-12-18T03:22:38.596Z,57.50
2022-12-18T03:27:47.017Z,51.42
2022-12-18T03:33:16.175Z,62.01
2022-12-18T03:38:19.788Z,61.67
2022-12-18T03:43:28.639Z,53.87
2022-12-18T03:48:40.318Z,61.88
2022-12-18T03:54:05.179Z,64.39
2022-12-18T03:59:11.214Z,50.92
2022-12-18T04:04:17.249Z,54.79
2022-12-18T04:09:21.882Z,62.88
2022-12-18T04:14:24.872Z,63.53
2022-12-18T04:19:27.988Z,54.91
2022-12-18T04:24:31.194Z,56.41
2022-12-18T04:29:34.303Z,59.54
2022-12-18T04:34:37.410Z,68.63
2022-12-18T04:39:40.417Z,60.82
2022-12-18T04:44:43.522Z,53.12
2022-12-18T04:49:46.433Z,59.41
2022-12-18T04:54:49.538Z,63.15
2022-12-18T04:59:52.544Z,66.51
2022-12-18T05:04:55.654Z,60.78
2022-12-18T05:09:58.865Z,51.64
2022-12-18T05:15:02.075Z,54.48
2022-12-18T05:20:05.706Z,63.52
2022-12-18T05:25:09.619Z,63.24
2022-12-18T05:30:13.706Z,52.56
2022-12-18T05:35:16.762Z,55.56
2022-12-18T05:40:19.868Z,65.10
2022-12-18T05:45:22.979Z,62.28
2022-12-18T05:50:25.986Z,55.11
2022-12-18T05:55:28.997Z,59.77
2022-12-18T06:00:33.486Z,65.92
2022-12-18T06:05:38.801Z,63.62
2022-12-18T06:10:42.627Z,52.77
2022-12-18T06:15:45.786Z,53.25
2022-12-18T06:20:57.009Z,64.07
2022-12-18T06:26:00.029Z,62.73
2022-12-18T06:31:04.976Z,53.81
2022-12-18T06:36:11.648Z,59.85
2022-12-18T06:41:17.981Z,66.23
2022-12-18T06:46:21.202Z,57.60
2022-12-18T06:51:25.102Z,55.68
2022-12-18T06:56:29.095Z,62.61
2022-12-18T07:01:32.366Z,56.45
2022-12-18T07:06:35.651Z,61.78
2022-12-18T07:11:38.759Z,58.47
2022-12-18T07:16:42.130Z,55.27
2022-12-18T07:21:45.181Z,64.42
2022-12-18T07:26:49.008Z,56.53
2022-12-18T07:31:52.259Z,56.38
2022-12-18T07:36:55.332Z,64.14
2022-12-18T07:42:16.866Z,54.90
2022-12-18T07:47:20.182Z,63.26
2022-12-18T07:52:26.169Z,63.64
2022-12-18T08:02:52.821Z,61.29
2022-12-18T08:07:57.155Z,60.15
2022-12-18T08:13:04.651Z,53.89
2022-12-18T08:18:12.650Z,61.54
2022-12-18T08:23:17.170Z,61.51
2022-12-18T08:28:20.072Z,54.50
2022-12-18T08:33:23.288Z,61.03
2022-12-18T08:38:26.392Z,64.36
2022-12-18T08:43:48.346Z,55.57
2022-12-18T08:48:52.786Z,58.06
2022-12-18T08:53:55.792Z,65.72
2022-12-18T08:58:59.099Z,55.53
2022-12-18T09:04:02.113Z,61.00
2022-12-18T09:09:06.553Z,60.26
2022-12-18T09:14:10.797Z,57.68
2022-12-18T09:19:13.891Z,61.75
2022-12-18T09:24:17.411Z,56.25
2022-12-18T09:29:20.418Z,63.09
2022-12-18T09:34:23.431Z,59.87
2022-12-18T09:39:26.430Z,56.30
2022-12-18T09:44:55.043Z,62.23
2022-12-18T09:50:02.756Z,61.23
2022-12-18T09:55:26.446Z,56.61
2022-12-18T10:00:29.654Z,62.74
2022-12-18T10:05:42.082Z,61.88
2022-12-18T10:10:51.048Z,53.69
2022-12-18T10:16:19.009Z,59.53
2022-12-18T10:21:38.924Z,62.28
2022-12-18T10:26:43.353Z,52.30
2022-12-18T10:31:46.373Z,57.44
2022-12-18T10:36:49.579Z,62.52
2022-12-18T10:41:53.007Z,53.70
2022-12-18T10:47:10.210Z,57.41
2022-12-18T10:52:22.975Z,62.32
2022-12-18T10:57:39.736Z,59.75
2022-12-18T11:02:42.920Z,62.66
2022-12-18T11:07:55.178Z,53.72
2022-12-18T11:13:18.417Z,59.24
2022-12-18T11:18:27.667Z,63.82
2022-12-18T11:23:30.798Z,53.67
2022-12-18T11:28:40.413Z,58.23
2022-12-18T11:34:19.702Z,57.80
2022-12-18T11:39:25.875Z,64.65
2022-12-18T11:45:02.439Z,54.64
2022-12-18T11:50:16.734Z,52.03
2022-12-18T11:55:45.445Z,53.96
2022-12-18T12:01:15.547Z,60.10
2022-12-18T12:06:32.625Z,65.23
2022-12-18T12:11:38.603Z,53.43
2022-12-18T12:17:23.386Z,52.84
2022-12-18T12:22:43.495Z,54.40
2022-12-18T12:28:07.899Z,63.84
2022-12-18T12:33:13.526Z,59.29
2022-12-18T12:38:25.486Z,55.06
2022-12-18T12:43:33.508Z,62.98
2022-12-18T12:48:55.360Z,55.97
2022-12-18T12:54:01.334Z,52.16
2022-12-18T12:59:16.739Z,54.82
2022-12-18T13:04:31.832Z,59.16
2022-12-18T13:09:55.613Z,66.31
2022-12-18T13:15:24.217Z,54.26
2022-12-18T13:20:39.005Z,54.21
2022-12-18T13:25:42.730Z,55.75
2022-12-18T13:30:57.151Z,57.61
2022-12-18T13:36:14.244Z,59.42
2022-12-18T13:41:23.187Z,68.94
2022-12-18T13:46:30.493Z,62.95
2022-12-18T13:51:35.252Z,56.33
2022-12-18T13:56:45.885Z,56.93
2022-12-18T14:01:55.658Z,59.14
2022-12-18T14:07:04.945Z,62.73
2022-12-18T14:12:35.299Z,69.84
2022-12-18T14:17:38.507Z,58.09
2022-12-18T14:22:46.320Z,56.30
2022-12-18T14:27:53.636Z,62.96
2022-12-18T14:33:12.925Z,62.77
2022-12-18T14:38:24.830Z,55.20
2022-12-18T14:43:30.686Z,63.94
2022-12-18T14:48:36.585Z,60.21
2022-12-18T14:53:47.577Z,59.26
2022-12-18T14:58:56.720Z,63.35
2022-12-18T15:04:01.195Z,55.12
2022-12-18T15:09:24.263Z,58.32
2022-12-18T15:14:36.463Z,65.97
2022-12-18T15:19:44.751Z,55.82
2022-12-18T15:24:48.104Z,61.55
2022-12-18T15:30:06.371Z,59.82
2022-12-18T15:35:09.242Z,61.33
2022-12-18T15:40:18.219Z,63.15
2022-12-18T15:45:23.065Z,52.78
2022-12-18T15:50:27.610Z,57.65
2022-12-18T15:55:50.538Z,65.27
2022-12-18T16:00:54.215Z,59.30
2022-12-18T16:05:59.465Z,54.79
2022-12-18T16:11:03.397Z,63.00
2022-12-18T16:16:06.962Z,62.44
2022-12-18T16:21:10.119Z,54.35
2022-12-18T16:26:13.438Z,61.66
2022-12-18T16:31:16.717Z,61.97
2022-12-18T16:36:19.858Z,55.30
2022-12-18T16:41:34.948Z,63.42
2022-12-18T16:46:40.103Z,58.10
2022-12-18T16:51:43.797Z,59.90
2022-12-18T16:56:50.005Z,62.58
2022-12-18T17:01:53.420Z,56.82
2022-12-18T17:06:56.681Z,63.59
2022-12-18T17:12:04.134Z,56.71
2022-12-18T17:17:20.864Z,60.15
2022-12-18T17:22:24.798Z,64.07
2022-12-18T17:27:28.014Z,55.32
2022-12-18T17:32:31.127Z,60.99
2022-12-18T17:37:34.227Z,62.41
2022-12-18T17:42:37.645Z,54.57
2022-12-18T17:47:40.653Z,63.53
2022-12-18T17:52:43.674Z,59.41
2022-12-18T17:57:46.764Z,62.73
2022-12-18T18:02:49.914Z,59.91
2022-12-18T18:07:53.397Z,56.70
2022-12-18T18:13:15.348Z,63.78
2022-12-18T18:18:18.354Z,56.27
2022-12-18T18:23:25.158Z,62.23
2022-12-18T18:28:28.256Z,59.11
2022-12-18T18:33:31.731Z,54.18
2022-12-18T18:38:34.782Z,54.58
2022-12-18T18:43:38.032Z,56.81
2022-12-18T18:48:43.710Z,66.03
2022-12-18T18:53:55.776Z,51.08
2022-12-18T18:58:59.030Z,56.37
2022-12-18T19:04:04.231Z,63.75
2022-12-18T19:09:07.269Z,64.89
2022-12-18T19:14:12.230Z,56.87
2022-12-18T19:19:17.947Z,53.20
2022-12-18T19:24:22.493Z,51.14
2022-12-18T19:29:25.838Z,50.66
2022-12-18T19:34:28.840Z,47.51
2022-12-18T19:39:32.050Z,44.54
2022-12-18T19:44:35.262Z,43.11
2022-12-18T19:49:38.981Z,42.65
2022-12-18T19:54:42.204Z,42.27
2022-12-18T19:59:45.409Z,40.95
2022-12-18T20:04:51.181Z,40.25
2022-12-18T20:10:01.393Z,39.37
2022-12-18T20:15:09.710Z,39.42
2022-12-18T20:20:12.793Z,38.97
2022-12-18T20:25:16.381Z,40.34
2022-12-18T20:30:19.624Z,41.37
2022-12-18T20:35:22.737Z,43.17
2022-12-18T20:40:26.866Z,44.55
2022-12-18T20:45:29.869Z,44.80
2022-12-18T20:50:32.774Z,44.01
2022-12-18T20:55:35.781Z,41.51
2022-12-18T21:00:38.684Z,40.03
2022-12-18T21:05:41.807Z,39.12
2022-12-18T21:10:44.905Z,38.71
2022-12-18T21:15:48.422Z,37.36
2022-12-18T21:20:51.638Z,37.41
2022-12-18T21:25:56.067Z,37.22
2022-12-18T21:30:59.572Z,37.24
2022-12-18T21:36:07.430Z,37.60
2022-12-18T21:41:31.311Z,37.77
2022-12-18T21:46:34.803Z,37.97
2022-12-18T21:51:39.045Z,38.58
2022-12-18T21:56:48.005Z,41.71
2022-12-18T22:01:52.764Z,43.28
2022-12-18T22:06:56.470Z,42.03
2022-12-18T22:12:00.306Z,40.55
2022-12-18T22:17:03.305Z,39.93
2022-12-18T22:22:06.927Z,39.98
2022-12-18T22:27:10.036Z,40.67
2022-12-18T22:32:22.084Z,40.00
2022-12-18T22:37:34.789Z,39.96
2022-12-18T22:42:37.903Z,40.26
2022-12-18T22:47:41.011Z,41.38
2022-12-18T22:52:44.011Z,41.07
2022-12-18T22:57:49.160Z,42.10
2022-12-18T23:02:59.976Z,41.54
2022-12-18T23:08:05.425Z,39.66
2022-12-18T23:13:08.740Z,38.36
2022-12-18T23:18:11.844Z,37.23
2022-12-18T23:23:14.853Z,36.74
2022-12-18T23:28:17.976Z,38.06
2022-12-18T23:33:21.169Z,38.33
2022-12-18T23:38:24.277Z,37.60
2022-12-18T23:43:27.493Z,37.33
2022-12-18T23:48:30.596Z,37.64
2022-12-18T23:53:33.704Z,37.05
2022-12-18T23:58:37.992Z,35.90
